sensor_id;sensor_type;location;lat;lon;timestamp;temperature;humidity
6102;DHT22;3081;50.584;7.032;2022-12-07T00:00:45;4.40;99.90
6102;DHT22;3081;50.584;7.032;2022-12-07T00:03:12;4.50;99.90
6102;DHT22;3081;50.584;7.032;2022-12-07T00:05:39;4.50;99.90
6102;DHT22;3081;50.584;7.032;2022-12-07T00:08:06;4.50;99.90
6102;DHT22;3081;50.584;7.032;2022-12-07T00:10:34;4.60;99.90
6102;DHT22;3081;50.584;7.032;2022-12-07T00:13:01;4.60;99.90
6102;DHT22;3081;50.584;7.032;2022-12-07T00:15:28;4.60;99.90
6102;DHT22;3081;50.584;7.032;2022-12-07T00:17:55;4.60;99.90
6102;DHT22;3081;50.584;7.032;2022-12-07T00:20:22;4.60;99.90
6102;DHT22;3081;50.584;7.032;2022-12-07T00:22:49;4.60;99.90
6102;DHT22;3081;50.584;7.032;2022-12-07T00:25:16;4.70;99.90
6102;DHT22;3081;50.584;7.032;2022-12-07T00:27:45;4.70;99.90
6102;DHT22;3081;50.584;7.032;2022-12-07T00:30:12;4.70;99.90
6102;DHT22;3081;50.584;7.032;2022-12-07T00:32:39;4.70;99.90
6102;DHT22;3081;50.584;7.032;2022-12-07T00:35:06;4.70;99.90
6102;DHT22;3081;50.584;7.032;2022-12-07T00:37:33;4.80;99.90
6102;DHT22;3081;50.584;7.032;2022-12-07T00:40:00;4.80;99.90
6102;DHT22;3081;50.584;7.032;2022-12-07T00:42:27;4.80;99.90
6102;DHT22;3081;50.584;7.032;2022-12-07T00:44:55;4.80;99.90
6102;DHT22;3081;50.584;7.032;2022-12-07T00:47:22;4.80;99.90
6102;DHT22;3081;50.584;7.032;2022-12-07T00:49:49;4.80;99.90
6102;DHT22;3081;50.584;7.032;2022-12-07T00:52:16;4.90;99.90
6102;DHT22;3081;50.584;7.032;2022-12-07T00:54:43;4.90;99.90
6102;DHT22;3081;50.584;7.032;2022-12-07T00:57:10;4.90;99.90
6102;DHT22;3081;50.584;7.032;2022-12-07T00:59:36;4.90;99.90
6102;DHT22;3081;50.584;7.032;2022-12-07T01:02:05;4.90;99.90
6102;DHT22;3081;50.584;7.032;2022-12-07T01:04:33;4.90;99.90
6102;DHT22;3081;50.584;7.032;2022-12-07T01:07:00;5.00;99.90
6102;DHT22;3081;50.584;7.032;2022-12-07T01:09:27;5.00;99.90
6102;DHT22;3081;50.584;7.032;2022-12-07T01:11:54;5.00;99.90
6102;DHT22;3081;50.584;7.032;2022-12-07T01:14:21;5.00;99.90
6102;DHT22;3081;50.584;7.032;2022-12-07T01:16:48;5.00;99.90
6102;DHT22;3081;50.584;7.032;2022-12-07T01:19:16;5.00;99.90
6102;DHT22;3081;50.584;7.032;2022-12-07T01:21:43;5.00;99.90
6102;DHT22;3081;50.584;7.032;2022-12-07T01:24:10;5.00;99.90
6102;DHT22;3081;50.584;7.032;2022-12-07T01:26:38;5.00;99.90
6102;DHT22;3081;50.584;7.032;2022-12-07T01:29:05;5.00;99.90
6102;DHT22;3081;50.584;7.032;2022-12-07T01:31:33;5.00;99.90
6102;DHT22;3081;50.584;7.032;2022-12-07T01:34:00;5.00;99.90
6102;DHT22;3081;50.584;7.032;2022-12-07T01:36:30;5.00;99.90
6102;DHT22;3081;50.584;7.032;2022-12-07T01:38:59;5.00;99.90
6102;DHT22;3081;50.584;7.032;2022-12-07T01:41:29;5.00;99.90
6102;DHT22;3081;50.584;7.032;2022-12-07T01:44:21;5.00;99.90
6102;DHT22;3081;50.584;7.032;2022-12-07T01:46:49;5.10;99.90
6102;DHT22;3081;50.584;7.032;2022-12-07T01:49:28;5.10;99.90
6102;DHT22;3081;50.584;7.032;2022-12-07T01:52:04;5.10;99.90
6102;DHT22;3081;50.584;7.032;2022-12-07T01:54:35;5.10;99.90
6102;DHT22;3081;50.584;7.032;2022-12-07T01:57:03;5.10;99.90
6102;DHT22;3081;50.584;7.032;2022-12-07T01:59:31;5.10;99.90
6102;DHT22;3081;50.584;7.032;2022-12-07T02:01:58;5.10;99.90
6102;DHT22;3081;50.584;7.032;2022-12-07T02:04:25;5.10;99.90
6102;DHT22;3081;50.584;7.032;2022-12-07T02:06:53;5.10;99.90
6102;DHT22;3081;50.584;7.032;2022-12-07T02:09:22;5.10;99.90
6102;DHT22;3081;50.584;7.032;2022-12-07T02:11:50;5.10;99.90
6102;DHT22;3081;50.584;7.032;2022-12-07T02:14:17;5.10;99.90
6102;DHT22;3081;50.584;7.032;2022-12-07T02:16:53;5.10;99.90
6102;DHT22;3081;50.584;7.032;2022-12-07T02:22:47;5.10;99.90
6102;DHT22;3081;50.584;7.032;2022-12-07T02:25:33;5.00;99.90
6102;DHT22;3081;50.584;7.032;2022-12-07T02:28:07;5.00;99.90
6102;DHT22;3081;50.584;7.032;2022-12-07T02:30:44;5.00;99.90
6102;DHT22;3081;50.584;7.032;2022-12-07T02:33:15;5.00;99.90
6102;DHT22;3081;50.584;7.032;2022-12-07T02:35:48;5.00;99.90
6102;DHT22;3081;50.584;7.032;2022-12-07T02:38:23;5.00;99.90
6102;DHT22;3081;50.584;7.032;2022-12-07T02:40:55;5.00;99.90
6102;DHT22;3081;50.584;7.032;2022-12-07T02:43:26;5.00;99.90
6102;DHT22;3081;50.584;7.032;2022-12-07T02:45:57;5.00;99.90
6102;DHT22;3081;50.584;7.032;2022-12-07T02:48:26;5.00;99.90
6102;DHT22;3081;50.584;7.032;2022-12-07T02:50:54;5.00;99.90
6102;DHT22;3081;50.584;7.032;2022-12-07T02:53:31;5.00;99.90
6102;DHT22;3081;50.584;7.032;2022-12-07T02:56:00;5.00;99.90
6102;DHT22;3081;50.584;7.032;2022-12-07T02:58:36;5.00;99.90
6102;DHT22;3081;50.584;7.032;2022-12-07T03:01:12;5.00;99.90
6102;DHT22;3081;50.584;7.032;2022-12-07T03:03:47;5.10;99.90
6102;DHT22;3081;50.584;7.032;2022-12-07T03:06:20;5.00;99.90
6102;DHT22;3081;50.584;7.032;2022-12-07T03:08:55;5.00;99.90
6102;DHT22;3081;50.584;7.032;2022-12-07T03:11:28;5.00;99.90
6102;DHT22;3081;50.584;7.032;2022-12-07T03:14:01;5.00;99.90
6102;DHT22;3081;50.584;7.032;2022-12-07T03:16:33;5.00;99.90
6102;DHT22;3081;50.584;7.032;2022-12-07T03:19:06;5.00;99.90
6102;DHT22;3081;50.584;7.032;2022-12-07T03:21:37;5.00;99.90
6102;DHT22;3081;50.584;7.032;2022-12-07T03:24:08;5.00;99.90
6102;DHT22;3081;50.584;7.032;2022-12-07T03:26:38;5.00;99.90
6102;DHT22;3081;50.584;7.032;2022-12-07T03:29:10;5.00;99.90
6102;DHT22;3081;50.584;7.032;2022-12-07T03:31:42;5.10;99.90
6102;DHT22;3081;50.584;7.032;2022-12-07T03:34:16;5.10;99.90
6102;DHT22;3081;50.584;7.032;2022-12-07T03:36:47;5.10;99.90
6102;DHT22;3081;50.584;7.032;2022-12-07T03:39:22;5.10;99.90
6102;DHT22;3081;50.584;7.032;2022-12-07T03:41:52;5.40;99.90
6102;DHT22;3081;50.584;7.032;2022-12-07T03:44:20;5.10;99.90
6102;DHT22;3081;50.584;7.032;2022-12-07T03:46:52;5.10;99.90
6102;DHT22;3081;50.584;7.032;2022-12-07T03:49:26;5.10;99.90
6102;DHT22;3081;50.584;7.032;2022-12-07T03:51:57;5.00;99.90
6102;DHT22;3081;50.584;7.032;2022-12-07T03:54:32;5.00;99.90
6102;DHT22;3081;50.584;7.032;2022-12-07T03:57:02;5.00;99.90
6102;DHT22;3081;50.584;7.032;2022-12-07T03:59:30;5.00;99.90
6102;DHT22;3081;50.584;7.032;2022-12-07T04:04:34;5.00;99.90
6102;DHT22;3081;50.584;7.032;2022-12-07T04:07:01;5.00;99.90
6102;DHT22;3081;50.584;7.032;2022-12-07T04:09:28;5.10;99.90
6102;DHT22;3081;50.584;7.032;2022-12-07T04:11:55;5.10;99.90
6102;DHT22;3081;50.584;7.032;2022-12-07T04:14:22;5.10;99.90
6102;DHT22;3081;50.584;7.032;2022-12-07T04:16:50;5.00;99.90
6102;DHT22;3081;50.584;7.032;2022-12-07T04:19:19;5.10;99.90
6102;DHT22;3081;50.584;7.032;2022-12-07T04:21:47;5.10;99.90
6102;DHT22;3081;50.584;7.032;2022-12-07T04:24:15;5.10;99.90
6102;DHT22;3081;50.584;7.032;2022-12-07T04:26:42;5.10;99.90
6102;DHT22;3081;50.584;7.032;2022-12-07T04:29:10;5.10;99.90
6102;DHT22;3081;50.584;7.032;2022-12-07T04:31:37;5.10;99.90
6102;DHT22;3081;50.584;7.032;2022-12-07T04:34:05;5.10;99.90
6102;DHT22;3081;50.584;7.032;2022-12-07T04:36:32;5.10;99.90
6102;DHT22;3081;50.584;7.032;2022-12-07T04:39:01;5.10;99.90
6102;DHT22;3081;50.584;7.032;2022-12-07T04:41:29;5.10;99.90
6102;DHT22;3081;50.584;7.032;2022-12-07T04:43:56;5.10;99.90
6102;DHT22;3081;50.584;7.032;2022-12-07T04:46:25;5.10;99.90
6102;DHT22;3081;50.584;7.032;2022-12-07T04:48:53;5.10;99.90
6102;DHT22;3081;50.584;7.032;2022-12-07T04:51:22;5.10;99.90
6102;DHT22;3081;50.584;7.032;2022-12-07T04:53:49;5.10;99.90
6102;DHT22;3081;50.584;7.032;2022-12-07T04:56:18;5.10;99.90
6102;DHT22;3081;50.584;7.032;2022-12-07T04:58:47;5.10;99.90
6102;DHT22;3081;50.584;7.032;2022-12-07T05:01:15;5.10;99.90
6102;DHT22;3081;50.584;7.032;2022-12-07T05:03:42;5.10;99.90
6102;DHT22;3081;50.584;7.032;2022-12-07T05:06:10;5.10;99.90
6102;DHT22;3081;50.584;7.032;2022-12-07T05:08:37;5.10;99.90
6102;DHT22;3081;50.584;7.032;2022-12-07T05:11:05;5.10;99.90
6102;DHT22;3081;50.584;7.032;2022-12-07T05:13:34;5.10;99.90
6102;DHT22;3081;50.584;7.032;2022-12-07T05:16:01;5.10;99.90
6102;DHT22;3081;50.584;7.032;2022-12-07T05:18:28;5.10;99.90
6102;DHT22;3081;50.584;7.032;2022-12-07T05:20:55;5.20;99.90
6102;DHT22;3081;50.584;7.032;2022-12-07T05:23:22;5.20;99.90
6102;DHT22;3081;50.584;7.032;2022-12-07T05:25:49;5.20;99.90
6102;DHT22;3081;50.584;7.032;2022-12-07T05:28:16;5.10;99.90
6102;DHT22;3081;50.584;7.032;2022-12-07T05:30:44;5.20;99.90
6102;DHT22;3081;50.584;7.032;2022-12-07T05:33:11;5.20;99.90
6102;DHT22;3081;50.584;7.032;2022-12-07T05:35:38;5.20;99.90
6102;DHT22;3081;50.584;7.032;2022-12-07T05:38:06;5.20;99.90
6102;DHT22;3081;50.584;7.032;2022-12-07T05:40:32;5.20;99.90
6102;DHT22;3081;50.584;7.032;2022-12-07T05:42:59;5.10;99.90
6102;DHT22;3081;50.584;7.032;2022-12-07T05:45:26;5.10;99.90
6102;DHT22;3081;50.584;7.032;2022-12-07T05:47:55;5.10;99.90
6102;DHT22;3081;50.584;7.032;2022-12-07T05:50:22;5.10;99.90
6102;DHT22;3081;50.584;7.032;2022-12-07T05:52:48;5.10;99.90
6102;DHT22;3081;50.584;7.032;2022-12-07T05:55:15;5.10;99.90
6102;DHT22;3081;50.584;7.032;2022-12-07T05:57:42;5.10;99.90
6102;DHT22;3081;50.584;7.032;2022-12-07T06:00:29;5.00;99.90
6102;DHT22;3081;50.584;7.032;2022-12-07T06:02:57;5.00;99.90
6102;DHT22;3081;50.584;7.032;2022-12-07T06:05:24;5.00;99.90
6102;DHT22;3081;50.584;7.032;2022-12-07T06:07:50;5.00;99.90
6102;DHT22;3081;50.584;7.032;2022-12-07T06:10:17;5.10;99.90
6102;DHT22;3081;50.584;7.032;2022-12-07T06:12:44;5.10;99.90
6102;DHT22;3081;50.584;7.032;2022-12-07T06:15:11;5.10;99.90
6102;DHT22;3081;50.584;7.032;2022-12-07T06:17:39;5.10;99.90
6102;DHT22;3081;50.584;7.032;2022-12-07T06:20:08;5.10;99.90
6102;DHT22;3081;50.584;7.032;2022-12-07T06:22:35;5.00;99.90
6102;DHT22;3081;50.584;7.032;2022-12-07T06:25:02;5.00;99.90
6102;DHT22;3081;50.584;7.032;2022-12-07T06:27:29;5.00;99.90
6102;DHT22;3081;50.584;7.032;2022-12-07T06:29:58;5.10;99.90
6102;DHT22;3081;50.584;7.032;2022-12-07T06:32:25;5.10;99.90
6102;DHT22;3081;50.584;7.032;2022-12-07T06:34:52;5.00;99.90
6102;DHT22;3081;50.584;7.032;2022-12-07T06:37:20;5.10;99.90
6102;DHT22;3081;50.584;7.032;2022-12-07T06:39:47;5.10;99.90
6102;DHT22;3081;50.584;7.032;2022-12-07T06:42:14;5.10;99.90
6102;DHT22;3081;50.584;7.032;2022-12-07T06:44:41;5.00;99.90
6102;DHT22;3081;50.584;7.032;2022-12-07T06:47:08;5.00;99.90
6102;DHT22;3081;50.584;7.032;2022-12-07T06:49:34;5.00;99.90
6102;DHT22;3081;50.584;7.032;2022-12-07T06:52:01;5.00;99.90
6102;DHT22;3081;50.584;7.032;2022-12-07T06:54:31;5.00;99.90
6102;DHT22;3081;50.584;7.032;2022-12-07T06:56:58;5.00;99.90
6102;DHT22;3081;50.584;7.032;2022-12-07T06:59:25;5.00;99.90
6102;DHT22;3081;50.584;7.032;2022-12-07T07:01:52;4.90;99.90
6102;DHT22;3081;50.584;7.032;2022-12-07T07:04:19;4.90;99.90
6102;DHT22;3081;50.584;7.032;2022-12-07T07:06:46;4.90;99.90
6102;DHT22;3081;50.584;7.032;2022-12-07T07:09:13;4.90;99.90
6102;DHT22;3081;50.584;7.032;2022-12-07T07:11:41;4.90;99.90
6102;DHT22;3081;50.584;7.032;2022-12-07T07:14:08;4.80;99.90
6102;DHT22;3081;50.584;7.032;2022-12-07T07:16:35;4.70;99.90
6102;DHT22;3081;50.584;7.032;2022-12-07T07:19:02;4.70;99.90
6102;DHT22;3081;50.584;7.032;2022-12-07T07:21:29;4.70;99.90
6102;DHT22;3081;50.584;7.032;2022-12-07T07:23:56;4.60;99.90
6102;DHT22;3081;50.584;7.032;2022-12-07T07:26:23;4.60;99.90
6102;DHT22;3081;50.584;7.032;2022-12-07T07:28:51;4.60;99.90
6102;DHT22;3081;50.584;7.032;2022-12-07T07:31:18;4.50;99.90
6102;DHT22;3081;50.584;7.032;2022-12-07T07:33:45;4.60;99.90
6102;DHT22;3081;50.584;7.032;2022-12-07T07:36:12;4.50;99.90
6102;DHT22;3081;50.584;7.032;2022-12-07T07:38:39;4.50;99.90
6102;DHT22;3081;50.584;7.032;2022-12-07T07:41:06;4.50;99.90
6102;DHT22;3081;50.584;7.032;2022-12-07T07:43:33;4.50;99.90
6102;DHT22;3081;50.584;7.032;2022-12-07T07:46:01;4.60;99.90
6102;DHT22;3081;50.584;7.032;2022-12-07T07:48:28;4.60;99.90
6102;DHT22;3081;50.584;7.032;2022-12-07T07:50:55;4.60;99.90
6102;DHT22;3081;50.584;7.032;2022-12-07T07:53:22;4.70;99.90
6102;DHT22;3081;50.584;7.032;2022-12-07T07:55:52;4.70;99.90
6102;DHT22;3081;50.584;7.032;2022-12-07T07:58:20;4.70;99.90
6102;DHT22;3081;50.584;7.032;2022-12-07T08:00:47;4.80;99.90
6102;DHT22;3081;50.584;7.032;2022-12-07T08:03:15;4.80;99.90
6102;DHT22;3081;50.584;7.032;2022-12-07T08:05:43;4.80;99.90
6102;DHT22;3081;50.584;7.032;2022-12-07T08:08:09;4.80;99.90
6102;DHT22;3081;50.584;7.032;2022-12-07T08:10:36;4.90;99.90
6102;DHT22;3081;50.584;7.032;2022-12-07T08:13:03;4.90;99.90
6102;DHT22;3081;50.584;7.032;2022-12-07T08:15:41;5.00;99.90
6102;DHT22;3081;50.584;7.032;2022-12-07T08:18:08;5.00;99.90
6102;DHT22;3081;50.584;7.032;2022-12-07T08:20:37;5.00;99.90
6102;DHT22;3081;50.584;7.032;2022-12-07T08:23:05;5.10;99.90
6102;DHT22;3081;50.584;7.032;2022-12-07T08:25:32;5.10;99.90
6102;DHT22;3081;50.584;7.032;2022-12-07T08:28:00;5.10;99.90
6102;DHT22;3081;50.584;7.032;2022-12-07T08:30:27;5.10;99.90
6102;DHT22;3081;50.584;7.032;2022-12-07T08:32:54;5.20;99.90
6102;DHT22;3081;50.584;7.032;2022-12-07T08:35:21;5.20;99.90
6102;DHT22;3081;50.584;7.032;2022-12-07T08:37:49;5.20;99.90
6102;DHT22;3081;50.584;7.032;2022-12-07T08:40:16;5.30;99.90
6102;DHT22;3081;50.584;7.032;2022-12-07T08:42:48;5.30;99.90
6102;DHT22;3081;50.584;7.032;2022-12-07T08:45:16;5.30;99.90
6102;DHT22;3081;50.584;7.032;2022-12-07T08:47:46;5.30;99.90
6102;DHT22;3081;50.584;7.032;2022-12-07T08:50:15;5.40;99.90
6102;DHT22;3081;50.584;7.032;2022-12-07T08:52:43;5.40;99.90
6102;DHT22;3081;50.584;7.032;2022-12-07T08:55:12;5.40;99.90
6102;DHT22;3081;50.584;7.032;2022-12-07T08:57:39;5.40;99.90
6102;DHT22;3081;50.584;7.032;2022-12-07T09:00:08;5.50;99.90
6102;DHT22;3081;50.584;7.032;2022-12-07T09:02:35;5.50;99.90
6102;DHT22;3081;50.584;7.032;2022-12-07T09:05:03;5.60;99.90
6102;DHT22;3081;50.584;7.032;2022-12-07T09:07:30;5.80;99.90
6102;DHT22;3081;50.584;7.032;2022-12-07T09:09:58;6.10;99.90
6102;DHT22;3081;50.584;7.032;2022-12-07T09:12:26;6.30;99.90
6102;DHT22;3081;50.584;7.032;2022-12-07T09:14:53;6.30;99.90
6102;DHT22;3081;50.584;7.032;2022-12-07T09:17:20;6.50;99.90
6102;DHT22;3081;50.584;7.032;2022-12-07T09:19:47;6.80;99.90
6102;DHT22;3081;50.584;7.032;2022-12-07T09:22:14;7.00;99.90
6102;DHT22;3081;50.584;7.032;2022-12-07T09:24:41;7.40;99.90
6102;DHT22;3081;50.584;7.032;2022-12-07T09:27:09;7.60;99.90
6102;DHT22;3081;50.584;7.032;2022-12-07T09:29:37;7.60;99.90
6102;DHT22;3081;50.584;7.032;2022-12-07T09:32:04;7.50;99.90
6102;DHT22;3081;50.584;7.032;2022-12-07T09:34:31;8.00;99.90
6102;DHT22;3081;50.584;7.032;2022-12-07T09:37:00;8.60;99.90
6102;DHT22;3081;50.584;7.032;2022-12-07T09:39:28;9.30;99.90
6102;DHT22;3081;50.584;7.032;2022-12-07T09:41:57;9.70;99.90
6102;DHT22;3081;50.584;7.032;2022-12-07T09:44:26;9.60;99.90
6102;DHT22;3081;50.584;7.032;2022-12-07T09:46:55;9.30;99.90
6102;DHT22;3081;50.584;7.032;2022-12-07T09:49:24;8.90;99.90
6102;DHT22;3081;50.584;7.032;2022-12-07T09:52:00;8.70;99.90
6102;DHT22;3081;50.584;7.032;2022-12-07T09:54:29;8.40;99.90
6102;DHT22;3081;50.584;7.032;2022-12-07T09:56:57;8.20;99.90
6102;DHT22;3081;50.584;7.032;2022-12-07T09:59:25;7.90;99.90
6102;DHT22;3081;50.584;7.032;2022-12-07T10:01:52;7.90;99.90
6102;DHT22;3081;50.584;7.032;2022-12-07T10:04:22;7.80;99.90
6102;DHT22;3081;50.584;7.032;2022-12-07T10:06:50;7.70;99.90
6102;DHT22;3081;50.584;7.032;2022-12-07T10:09:18;7.70;99.90
6102;DHT22;3081;50.584;7.032;2022-12-07T10:11:59;7.60;99.90
6102;DHT22;3081;50.584;7.032;2022-12-07T10:14:28;7.60;99.90
6102;DHT22;3081;50.584;7.032;2022-12-07T10:16:55;7.50;99.90
6102;DHT22;3081;50.584;7.032;2022-12-07T10:19:26;7.40;99.90
6102;DHT22;3081;50.584;7.032;2022-12-07T10:22:08;7.30;99.90
6102;DHT22;3081;50.584;7.032;2022-12-07T10:24:36;7.30;99.90
6102;DHT22;3081;50.584;7.032;2022-12-07T10:27:05;7.30;99.90
6102;DHT22;3081;50.584;7.032;2022-12-07T10:29:33;7.40;99.90
6102;DHT22;3081;50.584;7.032;2022-12-07T10:32:03;7.60;99.90
6102;DHT22;3081;50.584;7.032;2022-12-07T10:34:33;7.70;99.90
6102;DHT22;3081;50.584;7.032;2022-12-07T10:37:15;7.90;99.90
6102;DHT22;3081;50.584;7.032;2022-12-07T10:39:43;8.10;99.90
6102;DHT22;3081;50.584;7.032;2022-12-07T10:42:17;8.10;99.90
6102;DHT22;3081;50.584;7.032;2022-12-07T10:44:45;8.30;99.90
6102;DHT22;3081;50.584;7.032;2022-12-07T10:47:29;8.30;99.90
6102;DHT22;3081;50.584;7.032;2022-12-07T10:50:17;8.50;99.90
6102;DHT22;3081;50.584;7.032;2022-12-07T10:53:05;8.70;99.90
6102;DHT22;3081;50.584;7.032;2022-12-07T10:55:46;8.90;99.90
6102;DHT22;3081;50.584;7.032;2022-12-07T10:58:28;8.90;99.90
6102;DHT22;3081;50.584;7.032;2022-12-07T11:01:06;8.90;99.90
6102;DHT22;3081;50.584;7.032;2022-12-07T11:03:58;8.80;99.90
6102;DHT22;3081;50.584;7.032;2022-12-07T11:06:33;8.70;99.90
6102;DHT22;3081;50.584;7.032;2022-12-07T11:09:16;8.60;99.90
6102;DHT22;3081;50.584;7.032;2022-12-07T11:11:51;8.80;99.90
6102;DHT22;3081;50.584;7.032;2022-12-07T11:14:25;9.00;99.90
6102;DHT22;3081;50.584;7.032;2022-12-07T11:16:56;8.80;99.90
6102;DHT22;3081;50.584;7.032;2022-12-07T11:19:34;8.60;99.90
6102;DHT22;3081;50.584;7.032;2022-12-07T11:22:13;8.40;99.90
6102;DHT22;3081;50.584;7.032;2022-12-07T11:24:48;8.40;99.90
6102;DHT22;3081;50.584;7.032;2022-12-07T11:27:22;8.50;99.90
6102;DHT22;3081;50.584;7.032;2022-12-07T11:32:51;8.90;99.90
6102;DHT22;3081;50.584;7.032;2022-12-07T11:35:29;9.00;99.90
6102;DHT22;3081;50.584;7.032;2022-12-07T11:38:01;9.00;99.90
6102;DHT22;3081;50.584;7.032;2022-12-07T11:40:35;8.80;99.90
6102;DHT22;3081;50.584;7.032;2022-12-07T11:43:09;8.60;99.90
6102;DHT22;3081;50.584;7.032;2022-12-07T11:45:42;8.40;99.90
6102;DHT22;3081;50.584;7.032;2022-12-07T11:48:14;8.50;99.90
6102;DHT22;3081;50.584;7.032;2022-12-07T11:50:46;8.70;99.90
6102;DHT22;3081;50.584;7.032;2022-12-07T11:53:18;8.80;99.90
6102;DHT22;3081;50.584;7.032;2022-12-07T11:55:49;8.80;99.90
6102;DHT22;3081;50.584;7.032;2022-12-07T11:58:44;8.80;99.90
6102;DHT22;3081;50.584;7.032;2022-12-07T12:01:19;8.90;99.90
6102;DHT22;3081;50.584;7.032;2022-12-07T12:03:51;9.20;99.90
6102;DHT22;3081;50.584;7.032;2022-12-07T12:06:19;9.20;99.90
6102;DHT22;3081;50.584;7.032;2022-12-07T12:08:53;9.10;99.90
6102;DHT22;3081;50.584;7.032;2022-12-07T12:11:34;8.70;99.90
6102;DHT22;3081;50.584;7.032;2022-12-07T12:14:21;8.20;99.90
6102;DHT22;3081;50.584;7.032;2022-12-07T12:17:25;8.10;99.90
6102;DHT22;3081;50.584;7.032;2022-12-07T12:20:03;7.90;99.90
6102;DHT22;3081;50.584;7.032;2022-12-07T12:22:35;7.80;99.90
6102;DHT22;3081;50.584;7.032;2022-12-07T12:25:11;7.90;99.90
6102;DHT22;3081;50.584;7.032;2022-12-07T12:27:39;8.40;99.90
6102;DHT22;3081;50.584;7.032;2022-12-07T12:30:25;9.00;99.90
6102;DHT22;3081;50.584;7.032;2022-12-07T12:32:52;9.20;99.90
6102;DHT22;3081;50.584;7.032;2022-12-07T12:35:29;9.10;99.90
6102;DHT22;3081;50.584;7.032;2022-12-07T12:38:26;9.10;99.90
6102;DHT22;3081;50.584;7.032;2022-12-07T12:40:56;9.80;99.90
6102;DHT22;3081;50.584;7.032;2022-12-07T12:43:46;10.20;99.90
6102;DHT22;3081;50.584;7.032;2022-12-07T12:46:48;10.10;99.90
6102;DHT22;3081;50.584;7.032;2022-12-07T12:49:42;9.70;99.90
6102;DHT22;3081;50.584;7.032;2022-12-07T12:55:17;9.50;99.90
6102;DHT22;3081;50.584;7.032;2022-12-07T12:57:53;9.50;99.90
6102;DHT22;3081;50.584;7.032;2022-12-07T13:00:41;9.30;99.90
6102;DHT22;3081;50.584;7.032;2022-12-07T13:03:27;9.20;99.90
6102;DHT22;3081;50.584;7.032;2022-12-07T13:06:29;9.40;99.90
6102;DHT22;3081;50.584;7.032;2022-12-07T13:08:59;9.30;99.90
6102;DHT22;3081;50.584;7.032;2022-12-07T13:11:31;9.00;99.90
6102;DHT22;3081;50.584;7.032;2022-12-07T13:17:00;8.70;99.90
6102;DHT22;3081;50.584;7.032;2022-12-07T13:19:57;8.50;99.90
6102;DHT22;3081;50.584;7.032;2022-12-07T13:22:41;8.30;99.90
6102;DHT22;3081;50.584;7.032;2022-12-07T13:25:12;8.10;99.90
6102;DHT22;3081;50.584;7.032;2022-12-07T13:27:41;8.00;99.90
6102;DHT22;3081;50.584;7.032;2022-12-07T13:30:15;7.90;99.90
6102;DHT22;3081;50.584;7.032;2022-12-07T13:32:51;7.80;99.90
6102;DHT22;3081;50.584;7.032;2022-12-07T13:35:33;7.50;99.90
6102;DHT22;3081;50.584;7.032;2022-12-07T13:38:05;7.40;99.90
6102;DHT22;3081;50.584;7.032;2022-12-07T13:40:32;7.20;99.90
6102;DHT22;3081;50.584;7.032;2022-12-07T13:43:01;7.00;99.90
6102;DHT22;3081;50.584;7.032;2022-12-07T13:45:31;6.70;99.90
6102;DHT22;3081;50.584;7.032;2022-12-07T13:48:24;6.70;99.90
6102;DHT22;3081;50.584;7.032;2022-12-07T13:50:54;6.70;99.90
6102;DHT22;3081;50.584;7.032;2022-12-07T13:53:21;6.70;99.90
6102;DHT22;3081;50.584;7.032;2022-12-07T13:55:48;6.80;99.90
6102;DHT22;3081;50.584;7.032;2022-12-07T13:58:15;6.90;99.90
6102;DHT22;3081;50.584;7.032;2022-12-07T14:00:43;7.20;99.90
6102;DHT22;3081;50.584;7.032;2022-12-07T14:03:28;7.40;99.90
6102;DHT22;3081;50.584;7.032;2022-12-07T14:06:15;7.30;99.90
6102;DHT22;3081;50.584;7.032;2022-12-07T14:08:43;7.20;99.90
6102;DHT22;3081;50.584;7.032;2022-12-07T14:11:15;6.90;99.90
6102;DHT22;3081;50.584;7.032;2022-12-07T14:13:56;6.60;99.90
6102;DHT22;3081;50.584;7.032;2022-12-07T14:16:28;6.40;99.90
6102;DHT22;3081;50.584;7.032;2022-12-07T14:18:58;6.30;99.90
6102;DHT22;3081;50.584;7.032;2022-12-07T14:21:26;6.00;99.90
6102;DHT22;3081;50.584;7.032;2022-12-07T14:24:12;6.10;99.90
6102;DHT22;3081;50.584;7.032;2022-12-07T14:26:42;6.10;99.90
6102;DHT22;3081;50.584;7.032;2022-12-07T14:29:35;6.20;99.90
6102;DHT22;3081;50.584;7.032;2022-12-07T14:32:22;6.20;99.90
6102;DHT22;3081;50.584;7.032;2022-12-07T14:35:09;6.10;99.90
6102;DHT22;3081;50.584;7.032;2022-12-07T14:37:38;6.10;99.90
6102;DHT22;3081;50.584;7.032;2022-12-07T14:40:06;6.10;99.90
6102;DHT22;3081;50.584;7.032;2022-12-07T14:42:34;6.10;99.90
6102;DHT22;3081;50.584;7.032;2022-12-07T14:45:01;6.00;99.90
6102;DHT22;3081;50.584;7.032;2022-12-07T14:47:28;6.00;99.90
6102;DHT22;3081;50.584;7.032;2022-12-07T14:49:54;6.00;99.90
6102;DHT22;3081;50.584;7.032;2022-12-07T14:52:26;5.90;99.90
6102;DHT22;3081;50.584;7.032;2022-12-07T14:54:54;5.90;99.90
6102;DHT22;3081;50.584;7.032;2022-12-07T14:57:21;6.00;99.90
6102;DHT22;3081;50.584;7.032;2022-12-07T14:59:48;6.00;99.90
6102;DHT22;3081;50.584;7.032;2022-12-07T15:02:15;6.00;99.90
6102;DHT22;3081;50.584;7.032;2022-12-07T15:04:42;6.00;99.90
6102;DHT22;3081;50.584;7.032;2022-12-07T15:07:15;5.90;99.90
6102;DHT22;3081;50.584;7.032;2022-12-07T15:09:44;5.80;99.90
6102;DHT22;3081;50.584;7.032;2022-12-07T15:12:11;5.80;99.90
6102;DHT22;3081;50.584;7.032;2022-12-07T15:14:37;5.80;99.90
6102;DHT22;3081;50.584;7.032;2022-12-07T15:17:04;5.70;99.90
6102;DHT22;3081;50.584;7.032;2022-12-07T15:19:32;5.60;99.90
6102;DHT22;3081;50.584;7.032;2022-12-07T15:21:59;5.60;99.90
6102;DHT22;3081;50.584;7.032;2022-12-07T15:24:26;5.60;99.90
6102;DHT22;3081;50.584;7.032;2022-12-07T15:26:54;5.60;99.90
6102;DHT22;3081;50.584;7.032;2022-12-07T15:29:21;5.60;99.90
6102;DHT22;3081;50.584;7.032;2022-12-07T15:31:49;5.60;99.90
6102;DHT22;3081;50.584;7.032;2022-12-07T15:34:16;5.60;99.90
6102;DHT22;3081;50.584;7.032;2022-12-07T15:36:43;5.50;99.90
6102;DHT22;3081;50.584;7.032;2022-12-07T15:39:10;5.60;99.90
6102;DHT22;3081;50.584;7.032;2022-12-07T15:41:38;5.60;99.90
6102;DHT22;3081;50.584;7.032;2022-12-07T15:44:09;5.50;99.90
6102;DHT22;3081;50.584;7.032;2022-12-07T15:46:54;5.40;99.90
6102;DHT22;3081;50.584;7.032;2022-12-07T15:49:21;5.40;99.90
6102;DHT22;3081;50.584;7.032;2022-12-07T15:51:47;5.40;99.90
6102;DHT22;3081;50.584;7.032;2022-12-07T15:54:19;5.30;99.90
6102;DHT22;3081;50.584;7.032;2022-12-07T15:56:46;5.30;99.90
6102;DHT22;3081;50.584;7.032;2022-12-07T15:59:14;5.30;99.90
6102;DHT22;3081;50.584;7.032;2022-12-07T16:01:41;5.40;99.90
6102;DHT22;3081;50.584;7.032;2022-12-07T16:04:08;5.30;99.90
6102;DHT22;3081;50.584;7.032;2022-12-07T16:06:35;5.40;99.90
6102;DHT22;3081;50.584;7.032;2022-12-07T16:09:03;5.40;99.90
6102;DHT22;3081;50.584;7.032;2022-12-07T16:11:30;5.50;99.90
6102;DHT22;3081;50.584;7.032;2022-12-07T16:13:57;5.40;99.90
6102;DHT22;3081;50.584;7.032;2022-12-07T16:16:25;5.40;99.90
6102;DHT22;3081;50.584;7.032;2022-12-07T16:18:52;5.30;99.90
6102;DHT22;3081;50.584;7.032;2022-12-07T16:21:20;5.30;99.90
6102;DHT22;3081;50.584;7.032;2022-12-07T16:23:46;5.20;99.90
6102;DHT22;3081;50.584;7.032;2022-12-07T16:26:16;5.20;99.90
6102;DHT22;3081;50.584;7.032;2022-12-07T16:28:43;5.20;99.90
6102;DHT22;3081;50.584;7.032;2022-12-07T16:31:13;5.20;99.90
6102;DHT22;3081;50.584;7.032;2022-12-07T16:33:43;5.20;99.90
6102;DHT22;3081;50.584;7.032;2022-12-07T16:36:11;5.20;99.90
6102;DHT22;3081;50.584;7.032;2022-12-07T16:38:39;5.20;99.90
6102;DHT22;3081;50.584;7.032;2022-12-07T16:41:06;5.10;99.90
6102;DHT22;3081;50.584;7.032;2022-12-07T16:43:33;5.10;99.90
6102;DHT22;3081;50.584;7.032;2022-12-07T16:46:00;5.10;99.90
6102;DHT22;3081;50.584;7.032;2022-12-07T16:48:27;5.10;99.90
6102;DHT22;3081;50.584;7.032;2022-12-07T16:50:56;5.00;99.90
6102;DHT22;3081;50.584;7.032;2022-12-07T16:53:24;5.00;99.90